createdAt,value
2019-01-23T00:00:51.161Z,22.57
2019-01-23T00:03:18.458Z,24.87
2019-01-23T00:05:45.671Z,27.83
2019-01-23T00:08:12.906Z,26.10
2019-01-23T00:10:40.157Z,21.70
2019-01-23T00:13:07.396Z,22.60
2019-01-23T00:15:34.751Z,25.17
2019-01-23T00:18:02.098Z,24.50
2019-01-23T00:20:29.443Z,27.20
2019-01-23T00:22:56.779Z,26.63
2019-01-23T00:25:23.998Z,21.93
2019-01-23T00:27:51.368Z,27.73
2019-01-23T00:30:18.708Z,30.13
2019-01-23T00:32:46.092Z,29.00
2019-01-23T00:35:13.447Z,29.13
2019-01-23T00:37:42.473Z,32.93
2019-01-23T00:40:10.250Z,28.13
2019-01-23T00:42:37.495Z,33.27
2019-01-23T00:45:06.497Z,33.43
2019-01-23T00:47:33.712Z,33.33
2019-01-23T00:50:00.964Z,25.97
2019-01-23T00:52:28.312Z,33.63
2019-01-23T00:54:55.565Z,34.20
2019-01-23T00:57:22.912Z,38.80
2019-01-23T00:59:50.233Z,36.00
2019-01-23T01:02:17.574Z,36.50
2019-01-23T01:04:44.892Z,44.30
2019-01-23T01:07:12.148Z,40.53
2019-01-23T01:09:39.462Z,41.43
2019-01-23T01:12:06.806Z,43.87
2019-01-23T01:14:34.189Z,42.47
2019-01-23T01:17:01.539Z,38.13
2019-01-23T01:19:28.847Z,42.03
2019-01-23T01:21:56.172Z,42.17
2019-01-23T01:24:23.534Z,42.57
2019-01-23T01:26:50.850Z,41.40
2019-01-23T01:29:18.148Z,43.77
2019-01-23T01:31:45.735Z,47.53
2019-01-23T01:34:13.130Z,51.27
2019-01-23T01:36:40.339Z,52.67
2019-01-23T01:39:08.075Z,56.50
2019-01-23T01:41:35.425Z,53.77
2019-01-23T01:44:02.867Z,57.47
2019-01-23T01:46:30.115Z,58.03
2019-01-23T01:48:57.436Z,64.07
2019-01-23T01:51:24.783Z,69.17
2019-01-23T01:53:52.082Z,69.63
2019-01-23T01:56:19.345Z,76.50
2019-01-23T01:58:46.663Z,71.53
2019-01-23T02:01:13.933Z,74.97
2019-01-23T02:03:41.242Z,68.67
2019-01-23T02:06:08.468Z,74.40
2019-01-23T02:08:35.828Z,70.83
2019-01-23T02:11:03.651Z,74.73
2019-01-23T02:13:30.879Z,71.20
2019-01-23T02:15:58.233Z,80.13
2019-01-23T02:18:25.654Z,86.33
2019-01-23T02:20:53.104Z,74.20
2019-01-23T02:23:20.421Z,69.97
2019-01-23T02:25:47.892Z,74.70
2019-01-23T02:28:15.330Z,70.37
2019-01-23T02:30:42.779Z,68.70
2019-01-23T02:33:10.394Z,69.50
2019-01-23T02:35:37.782Z,57.40
2019-01-23T02:38:05.219Z,60.07
2019-01-23T02:40:32.426Z,55.67
2019-01-23T02:42:59.691Z,53.87
2019-01-23T02:45:26.990Z,63.83
2019-01-23T02:47:54.318Z,61.90
2019-01-23T02:50:21.739Z,66.43
2019-01-23T02:52:49.089Z,65.00
2019-01-23T02:55:16.535Z,63.27
2019-01-23T02:57:43.884Z,64.43
2019-01-23T03:00:15.951Z,57.83
2019-01-23T03:02:43.488Z,62.07
2019-01-23T03:05:12.760Z,64.77
2019-01-23T03:07:40.098Z,62.40
2019-01-23T03:10:09.845Z,59.37
2019-01-23T03:12:37.227Z,62.73
2019-01-23T03:15:06.251Z,69.47
2019-01-23T03:17:33.469Z,77.90
2019-01-23T03:20:00.923Z,68.77
2019-01-23T03:22:28.356Z,70.67
2019-01-23T03:24:55.615Z,76.37
2019-01-23T03:27:22.993Z,70.83
2019-01-23T03:29:50.306Z,69.37
2019-01-23T03:32:17.573Z,65.67
2019-01-23T03:34:45.028Z,64.80
2019-01-23T03:37:12.348Z,66.33
2019-01-23T03:39:39.745Z,59.50
2019-01-23T03:42:07.056Z,57.73
2019-01-23T03:44:34.367Z,57.33
2019-01-23T03:47:01.642Z,54.07
2019-01-23T03:49:29.004Z,51.33
2019-01-23T03:51:56.238Z,45.93
2019-01-23T03:54:23.572Z,48.90
2019-01-23T03:56:50.804Z,49.97
2019-01-23T03:59:18.443Z,56.63
2019-01-23T04:01:45.775Z,50.50
2019-01-23T04:04:13.029Z,62.27
2019-01-23T04:06:40.337Z,57.40
2019-01-23T04:09:07.696Z,48.77
2019-01-23T04:11:35.031Z,53.60
2019-01-23T04:14:02.259Z,63.57
2019-01-23T04:16:29.518Z,70.93
2019-01-23T04:18:56.728Z,57.30
2019-01-23T04:21:24.051Z,60.60
2019-01-23T04:23:51.521Z,62.27
2019-01-23T04:26:18.968Z,65.83
2019-01-23T04:28:46.419Z,57.23
2019-01-23T04:31:13.740Z,60.13
2019-01-23T04:33:41.229Z,58.43
2019-01-23T04:36:08.577Z,61.73
2019-01-23T04:38:36.229Z,53.80
2019-01-23T04:41:03.536Z,61.00
2019-01-23T04:43:30.779Z,63.50
2019-01-23T04:45:58.016Z,61.50
2019-01-23T04:48:25.228Z,65.13
2019-01-23T04:51:10.842Z,58.00
2019-01-23T04:53:40.926Z,63.63
2019-01-23T04:56:08.317Z,67.40
2019-01-23T04:58:35.663Z,57.30
2019-01-23T05:01:03.731Z,50.77
2019-01-23T05:03:31.081Z,53.90
2019-01-23T05:05:58.523Z,55.80
2019-01-23T05:08:25.892Z,54.77
2019-01-23T05:10:53.163Z,52.67
2019-01-23T05:13:20.561Z,52.90
2019-01-23T05:15:47.899Z,58.00
2019-01-23T05:18:15.220Z,46.33
2019-01-23T05:20:42.567Z,52.80
2019-01-23T05:23:10.036Z,54.67
2019-01-23T05:25:37.484Z,63.20
2019-01-23T05:28:04.697Z,67.42
2019-01-23T05:30:32.099Z,66.13
2019-01-23T05:32:59.316Z,51.70
2019-01-23T05:35:26.641Z,59.97
2019-01-23T05:37:53.978Z,53.20
2019-01-23T05:40:21.310Z,58.63
2019-01-23T05:42:48.656Z,61.67
2019-01-23T05:45:16.276Z,56.90
2019-01-23T05:47:43.637Z,51.80
2019-01-23T05:50:13.980Z,46.60
2019-01-23T05:52:41.491Z,45.33
2019-01-23T05:55:09.900Z,51.13
2019-01-23T05:57:37.272Z,48.97
2019-01-23T06:00:06.728Z,44.77
2019-01-23T06:02:34.058Z,47.77
2019-01-23T06:05:01.382Z,48.10
2019-01-23T06:07:28.715Z,47.60
2019-01-23T06:09:55.955Z,45.43
2019-01-23T06:12:23.320Z,45.27
2019-01-23T06:14:50.705Z,42.07
2019-01-23T06:17:18.036Z,48.87
2019-01-23T06:19:45.348Z,42.00
2019-01-23T06:22:12.700Z,42.07
2019-01-23T06:24:40.061Z,48.67
2019-01-23T06:27:07.416Z,42.20
2019-01-23T06:29:34.745Z,45.97
2019-01-23T06:32:02.195Z,38.77
2019-01-23T06:34:29.462Z,49.37
2019-01-23T06:36:56.840Z,45.97
2019-01-23T06:39:24.268Z,37.33
2019-01-23T06:41:51.592Z,43.93
2019-01-23T06:44:19.091Z,41.30
2019-01-23T06:46:46.291Z,44.90
2019-01-23T06:49:13.626Z,38.80
2019-01-23T06:51:40.971Z,35.87
2019-01-23T06:54:08.183Z,42.03
2019-01-23T06:56:35.440Z,43.37
2019-01-23T06:59:02.649Z,40.83
2019-01-23T07:01:29.979Z,44.67
2019-01-23T07:03:57.213Z,48.70
2019-01-23T07:06:24.612Z,40.87
2019-01-23T07:08:52.040Z,45.27
2019-01-23T07:11:19.576Z,44.30
2019-01-23T07:13:46.958Z,38.60
2019-01-23T07:16:14.208Z,44.17
2019-01-23T07:18:41.608Z,49.50
2019-01-23T07:21:08.925Z,46.83
2019-01-23T07:23:36.149Z,39.33
2019-01-23T07:26:03.504Z,47.43
2019-01-23T07:28:30.725Z,44.20
2019-01-23T07:30:58.078Z,47.37
2019-01-23T07:33:25.400Z,48.53
2019-01-23T07:35:52.740Z,45.27
2019-01-23T07:38:19.962Z,43.70
2019-01-23T07:40:47.455Z,48.00
2019-01-23T07:43:15.121Z,42.57
2019-01-23T07:45:42.672Z,44.53
2019-01-23T07:48:10.120Z,47.90
2019-01-23T07:50:37.428Z,42.17
2019-01-23T07:53:04.673Z,42.47
2019-01-23T07:55:31.884Z,51.37
2019-01-23T07:57:59.308Z,44.80
2019-01-23T08:00:31.354Z,48.40
2019-01-23T08:02:55.968Z,45.47
2019-01-23T08:05:24.476Z,44.37
2019-01-23T08:07:52.153Z,45.37
2019-01-23T08:10:19.920Z,41.10
2019-01-23T08:12:47.310Z,49.27
2019-01-23T08:15:19.901Z,42.80
2019-01-23T08:17:47.219Z,39.30
2019-01-23T08:20:16.020Z,40.10
2019-01-23T08:22:43.315Z,46.00
2019-01-23T08:25:10.792Z,42.53
2019-01-23T08:27:38.215Z,43.03
2019-01-23T08:30:05.657Z,43.43
2019-01-23T08:32:32.899Z,46.67
2019-01-23T08:35:00.371Z,52.77
2019-01-23T08:37:27.726Z,44.33
2019-01-23T08:39:55.157Z,50.30
2019-01-23T08:42:22.417Z,45.30
2019-01-23T08:44:49.881Z,43.67
2019-01-23T08:47:17.442Z,43.17
2019-01-23T08:49:45.638Z,50.00
2019-01-23T08:52:13.251Z,45.57
2019-01-23T08:54:40.575Z,48.20
2019-01-23T08:57:07.928Z,42.10
2019-01-23T08:59:35.352Z,48.97
2019-01-23T09:02:02.612Z,42.00
2019-01-23T09:04:29.950Z,45.33
2019-01-23T09:06:57.299Z,50.90
2019-01-23T09:09:24.629Z,40.03
2019-01-23T09:11:52.179Z,46.80
2019-01-23T09:14:19.605Z,45.93
2019-01-23T09:16:47.250Z,45.60
2019-01-23T09:19:14.476Z,41.53
2019-01-23T09:21:41.732Z,46.20
2019-01-23T09:24:09.052Z,53.17
2019-01-23T09:26:36.479Z,49.87
2019-01-23T09:29:03.737Z,48.60
2019-01-23T09:32:00.211Z,44.30
2019-01-23T09:34:34.696Z,47.13
2019-01-23T09:37:37.178Z,46.53
2019-01-23T09:40:29.249Z,45.30
2019-01-23T09:43:56.687Z,45.47
2019-01-23T09:46:42.069Z,39.70
2019-01-23T09:49:46.737Z,43.43
2019-01-23T09:53:14.250Z,44.07
2019-01-23T09:55:41.757Z,44.37
2019-01-23T09:58:10.047Z,43.30
2019-01-23T10:00:37.369Z,41.87
2019-01-23T10:03:04.795Z,39.30
2019-01-23T10:05:32.045Z,48.20
2019-01-23T10:07:59.355Z,49.57
2019-01-23T10:10:26.592Z,45.87
2019-01-23T10:12:53.908Z,44.20
2019-01-23T10:15:32.940Z,43.37
2019-01-23T10:18:00.378Z,43.53
2019-01-23T10:20:27.725Z,48.43
2019-01-23T10:22:55.144Z,45.40
2019-01-23T10:25:22.390Z,46.73
2019-01-23T10:27:49.622Z,49.80
2019-01-23T10:30:17.141Z,55.50
2019-01-23T10:32:44.500Z,53.40
2019-01-23T10:35:12.685Z,45.57
2019-01-23T10:37:40.288Z,45.37
2019-01-23T10:40:10.584Z,50.30
2019-01-23T10:42:37.891Z,47.67
2019-01-23T10:45:06.020Z,49.10
2019-01-23T10:47:33.338Z,44.50
2019-01-23T10:50:00.693Z,45.10
2019-01-23T10:52:28.059Z,55.13
2019-01-23T10:54:55.177Z,43.97
2019-01-23T10:57:22.536Z,52.93
2019-01-23T10:59:49.840Z,42.80
2019-01-23T11:02:17.087Z,48.37
2019-01-23T11:04:44.448Z,42.37
2019-01-23T11:07:11.768Z,49.20
2019-01-23T11:09:39.016Z,45.57
2019-01-23T11:12:06.340Z,51.90
2019-01-23T11:14:33.695Z,48.07
2019-01-23T11:17:01.137Z,47.40
2019-01-23T11:19:28.459Z,37.03
2019-01-23T11:21:55.672Z,51.27
2019-01-23T11:24:22.988Z,46.23
2019-01-23T11:26:50.470Z,45.37
2019-01-23T11:29:17.828Z,48.73
2019-01-23T11:31:45.058Z,51.03
2019-01-23T11:34:12.370Z,45.37
2019-01-23T11:36:39.796Z,41.97
2019-01-23T11:39:08.361Z,49.80
2019-01-23T11:41:35.608Z,48.13
2019-01-23T11:44:02.938Z,50.77
2019-01-23T11:46:30.381Z,42.17
2019-01-23T11:48:57.827Z,41.67
2019-01-23T11:51:25.147Z,49.60
2019-01-23T11:53:52.416Z,47.77
2019-01-23T11:56:19.663Z,47.17
2019-01-23T11:58:46.866Z,48.87
2019-01-23T12:01:14.203Z,53.67
2019-01-23T12:03:41.551Z,47.17
2019-01-23T12:06:08.883Z,45.40
2019-01-23T12:08:36.359Z,51.83
2019-01-23T12:11:03.789Z,52.37
2019-01-23T12:13:31.307Z,51.50
2019-01-23T12:15:58.660Z,51.83
2019-01-23T12:18:25.976Z,52.27
2019-01-23T12:20:53.219Z,53.87
2019-01-23T12:23:20.590Z,48.07
2019-01-23T12:25:47.915Z,56.00
2019-01-23T12:28:15.128Z,57.30
2019-01-23T12:30:42.388Z,58.07
2019-01-23T12:33:09.709Z,50.43
2019-01-23T12:35:37.070Z,50.20
2019-01-23T12:38:04.495Z,44.87
2019-01-23T12:40:31.911Z,55.07
2019-01-23T12:42:59.459Z,50.53
2019-01-23T12:45:27.435Z,56.10
2019-01-23T12:47:54.756Z,46.13
2019-01-23T12:50:24.526Z,50.50
2019-01-23T12:52:51.729Z,49.20
2019-01-23T12:55:19.299Z,49.03
2019-01-23T12:57:46.635Z,53.10
2019-01-23T13:00:17.767Z,49.37
2019-01-23T13:02:45.080Z,47.17
2019-01-23T13:05:14.316Z,46.53
2019-01-23T13:07:41.521Z,46.70
2019-01-23T13:10:12.411Z,53.40
2019-01-23T13:12:39.827Z,49.70
2019-01-23T13:15:08.983Z,49.63
2019-01-23T13:17:36.226Z,46.47
2019-01-23T13:20:05.976Z,46.80
2019-01-23T13:22:33.718Z,45.10
2019-01-23T13:25:01.141Z,46.93
2019-01-23T13:27:28.427Z,53.57
2019-01-23T13:29:55.642Z,46.43
2019-01-23T13:32:22.999Z,48.93
2019-01-23T13:34:50.904Z,41.47
2019-01-23T13:37:18.356Z,47.30
2019-01-23T13:39:45.568Z,44.70
2019-01-23T13:42:12.956Z,44.33
2019-01-23T13:44:40.216Z,47.13
2019-01-23T13:47:07.536Z,47.47
2019-01-23T13:49:34.867Z,50.27
2019-01-23T13:52:02.268Z,47.67
2019-01-23T13:54:29.524Z,48.57
2019-01-23T13:56:56.845Z,48.47
2019-01-23T13:59:24.013Z,46.63
2019-01-23T14:01:56.270Z,45.10
2019-01-23T14:04:20.912Z,49.23
2019-01-23T14:06:48.245Z,49.80
2019-01-23T14:09:15.679Z,50.43
2019-01-23T14:11:43.187Z,46.07
2019-01-23T14:14:10.564Z,49.90
2019-01-23T14:16:37.923Z,42.37
2019-01-23T14:19:05.135Z,44.37
2019-01-23T14:21:32.400Z,45.87
2019-01-23T14:23:59.722Z,44.57
2019-01-23T14:26:27.081Z,49.80
2019-01-23T14:28:54.400Z,49.53
2019-01-23T14:31:21.811Z,46.67
2019-01-23T14:33:49.171Z,50.67
2019-01-23T14:36:16.416Z,52.70
2019-01-23T14:38:43.751Z,50.30
2019-01-23T14:41:11.088Z,50.13
2019-01-23T14:43:38.562Z,52.67
2019-01-23T14:46:05.973Z,48.07
2019-01-23T14:48:33.432Z,43.37
2019-01-23T14:51:00.731Z,48.57
2019-01-23T14:53:27.954Z,53.10
2019-01-23T14:55:55.330Z,46.93
2019-01-23T14:58:22.560Z,49.33
2019-01-23T15:00:49.895Z,51.70
2019-01-23T15:03:17.217Z,46.97
2019-01-23T15:05:44.565Z,45.57
2019-01-23T15:08:11.872Z,45.50
2019-01-23T15:10:39.337Z,49.67
2019-01-23T15:13:06.743Z,46.33
2019-01-23T15:15:34.003Z,50.23
2019-01-23T15:18:01.383Z,43.60
2019-01-23T15:20:34.136Z,50.60
2019-01-23T15:23:01.571Z,50.77
2019-01-23T15:25:28.915Z,48.60
2019-01-23T15:27:56.521Z,44.47
2019-01-23T15:30:24.237Z,43.07
2019-01-23T15:32:52.396Z,43.27
2019-01-23T15:35:19.854Z,49.43
2019-01-23T15:37:47.128Z,51.40
2019-01-23T15:40:19.816Z,52.47
2019-01-23T15:42:47.004Z,45.83
2019-01-23T15:45:14.219Z,45.17
2019-01-23T15:47:41.764Z,50.43
2019-01-23T15:50:12.352Z,50.67
2019-01-23T15:52:39.794Z,45.53
2019-01-23T15:55:09.143Z,48.07
2019-01-23T15:57:36.396Z,43.77
2019-01-23T16:00:06.352Z,46.10
2019-01-23T16:02:33.656Z,49.77
2019-01-23T16:05:00.866Z,43.13
2019-01-23T16:07:28.308Z,42.97
2019-01-23T16:09:55.654Z,44.40
2019-01-23T16:12:23.236Z,43.80
2019-01-23T16:14:50.600Z,46.37
2019-01-23T16:17:17.856Z,48.27
2019-01-23T16:19:45.141Z,45.30
2019-01-23T16:22:12.377Z,46.33
2019-01-23T16:24:39.683Z,48.87
2019-01-23T16:27:07.173Z,44.63
2019-01-23T16:29:34.796Z,46.00
2019-01-23T16:32:02.112Z,44.47
2019-01-23T16:34:29.551Z,42.00
2019-01-23T16:36:57.103Z,38.03
2019-01-23T16:39:24.336Z,38.97
2019-01-23T16:41:51.684Z,42.77
2019-01-23T16:44:18.919Z,39.47
2019-01-23T16:46:46.159Z,37.40
2019-01-23T16:49:13.375Z,37.03
2019-01-23T16:51:40.721Z,38.73
2019-01-23T16:54:08.110Z,36.40
2019-01-23T16:56:35.535Z,37.57
2019-01-23T16:59:03.236Z,36.03
2019-01-23T17:01:30.748Z,43.80
2019-01-23T17:04:00.288Z,35.87
2019-01-23T17:06:27.484Z,37.70
2019-01-23T17:08:54.811Z,37.93
2019-01-23T17:11:22.160Z,29.43
2019-01-23T17:13:49.481Z,36.00
2019-01-23T17:16:16.844Z,35.43
2019-01-23T17:18:44.283Z,30.43
2019-01-23T17:21:11.532Z,41.30
2019-01-23T17:23:38.855Z,44.70
2019-01-23T17:26:07.124Z,38.53
2019-01-23T17:28:34.633Z,34.27
2019-01-23T17:31:02.209Z,48.43
2019-01-23T17:33:29.560Z,38.97
2019-01-23T17:35:57.005Z,38.63
2019-01-23T17:38:24.472Z,56.70
2019-01-23T17:40:51.686Z,36.40
2019-01-23T17:43:19.303Z,36.60
2019-01-23T17:45:46.562Z,38.20
2019-01-23T17:48:14.313Z,36.43
2019-01-23T17:50:41.711Z,36.03
2019-01-23T17:53:09.103Z,33.70
2019-01-23T17:55:37.542Z,27.77
2019-01-23T17:58:07.223Z,31.13
2019-01-23T18:00:37.976Z,31.57
2019-01-23T18:03:05.737Z,32.57
2019-01-23T18:05:33.060Z,30.87
2019-01-23T18:08:00.705Z,32.63
2019-01-23T18:10:28.410Z,29.77
2019-01-23T18:12:55.838Z,29.70
2019-01-23T18:15:23.868Z,36.43
2019-01-23T18:17:51.244Z,29.17
2019-01-23T18:20:20.686Z,32.57
2019-01-23T18:22:48.091Z,31.23
2019-01-23T18:25:15.772Z,26.37
2019-01-23T18:27:43.831Z,23.50
2019-01-23T18:30:17.887Z,27.40
2019-01-23T18:32:45.525Z,25.23
2019-01-23T18:36:02.931Z,26.53
2019-01-23T18:39:08.643Z,29.27
2019-01-23T18:42:29.695Z,23.67
2019-01-23T18:45:08.397Z,25.50
2019-01-23T18:48:16.533Z,26.37
2019-01-23T18:51:35.265Z,25.70
2019-01-23T18:54:02.601Z,30.87
2019-01-23T18:56:30.283Z,27.53
2019-01-23T18:58:57.490Z,27.47
2019-01-23T19:01:24.966Z,26.43
2019-01-23T19:03:52.308Z,25.00
2019-01-23T19:06:19.531Z,25.60
2019-01-23T19:08:46.980Z,24.97
2019-01-23T19:11:14.304Z,27.67
2019-01-23T19:13:42.643Z,24.73
2019-01-23T19:16:10.298Z,27.73
2019-01-23T19:18:37.547Z,22.03
2019-01-23T19:21:05.552Z,25.20
2019-01-23T19:23:32.900Z,23.67
2019-01-23T19:26:00.249Z,24.80
2019-01-23T19:28:27.619Z,25.20
2019-01-23T19:30:54.987Z,26.40
2019-01-23T19:33:22.309Z,25.43
2019-01-23T19:35:49.655Z,25.17
2019-01-23T19:38:16.899Z,22.30
2019-01-23T19:40:44.213Z,22.70
2019-01-23T19:43:11.581Z,22.47
2019-01-23T19:45:38.811Z,26.47
2019-01-23T19:48:06.031Z,25.13
2019-01-23T19:50:33.369Z,23.60
2019-01-23T19:53:00.807Z,23.70
2019-01-23T19:55:28.167Z,21.47
2019-01-23T19:57:55.516Z,22.20
2019-01-23T20:00:23.090Z,25.47
2019-01-23T20:02:50.508Z,22.23
2019-01-23T20:05:23.730Z,29.33
2019-01-23T20:07:51.412Z,20.70
2019-01-23T20:10:20.190Z,24.13
2019-01-23T20:12:47.503Z,26.80
2019-01-23T20:15:16.359Z,20.63
2019-01-23T20:17:43.728Z,24.20
2019-01-23T20:20:11.814Z,20.93
2019-01-23T20:22:39.072Z,22.73
2019-01-23T20:25:09.304Z,19.40
2019-01-23T20:27:36.648Z,19.23
2019-01-23T20:30:11.588Z,23.27
2019-01-23T20:32:39.103Z,28.07
2019-01-23T20:35:07.561Z,23.70
2019-01-23T20:37:34.906Z,21.43
2019-01-23T20:40:02.224Z,19.83
2019-01-23T20:42:29.522Z,20.53
2019-01-23T20:44:56.796Z,25.73
2019-01-23T20:47:24.107Z,23.10
2019-01-23T20:49:51.340Z,23.37
2019-01-23T20:52:18.675Z,18.50
2019-01-23T20:54:46.246Z,18.90
2019-01-23T20:57:13.496Z,19.30
2019-01-23T20:59:40.823Z,18.60
2019-01-23T21:02:08.134Z,17.50
2019-01-23T21:04:35.390Z,19.77
2019-01-23T21:07:03.884Z,20.27
2019-01-23T21:09:31.262Z,17.50
2019-01-23T21:11:58.600Z,18.97
2019-01-23T21:14:25.916Z,17.77
2019-01-23T21:16:53.265Z,21.63
2019-01-23T21:19:20.570Z,21.40
2019-01-23T21:21:47.916Z,16.57
2019-01-23T21:24:15.289Z,23.07
2019-01-23T21:26:42.648Z,24.43
2019-01-23T21:29:09.986Z,25.10
2019-01-23T21:31:37.403Z,19.77
2019-01-23T21:34:04.752Z,15.63
2019-01-23T21:36:32.061Z,18.80
2019-01-23T21:38:59.323Z,20.07
2019-01-23T21:41:26.577Z,58.40
2019-01-23T21:43:53.884Z,20.23
2019-01-23T21:46:21.194Z,17.57
2019-01-23T21:48:48.433Z,16.90
2019-01-23T21:51:15.654Z,17.70
2019-01-23T21:53:42.989Z,18.30
2019-01-23T21:56:10.405Z,21.37
2019-01-23T21:58:37.799Z,23.57
2019-01-23T22:01:05.148Z,17.67
2019-01-23T22:03:32.580Z,21.93
2019-01-23T22:05:59.915Z,21.60
2019-01-23T22:08:27.147Z,20.43
2019-01-23T22:10:54.488Z,19.23
2019-01-23T22:13:21.849Z,20.50
2019-01-23T22:15:49.196Z,20.30
2019-01-23T22:18:16.840Z,18.70
2019-01-23T22:20:44.070Z,23.83
2019-01-23T22:23:11.336Z,18.73
2019-01-23T22:25:38.692Z,19.80
2019-01-23T22:28:06.149Z,20.57
2019-01-23T22:30:33.523Z,17.70
2019-01-23T22:33:01.080Z,17.17
2019-01-23T22:35:28.416Z,21.27
2019-01-23T22:37:55.664Z,24.37
2019-01-23T22:40:23.196Z,22.27
2019-01-23T22:42:50.590Z,21.27
2019-01-23T22:45:18.580Z,19.93
2019-01-23T22:47:45.935Z,20.83
2019-01-23T22:50:17.208Z,20.37
2019-01-23T22:52:45.005Z,23.87
2019-01-23T22:55:12.643Z,18.93
2019-01-23T22:57:39.890Z,21.37
2019-01-23T23:00:37.232Z,14.40
2019-01-23T23:03:06.694Z,24.20
2019-01-23T23:05:34.144Z,21.07
2019-01-23T23:08:01.667Z,21.70
2019-01-23T23:10:29.179Z,17.67
2019-01-23T23:12:56.422Z,18.50
2019-01-23T23:15:23.642Z,18.93
2019-01-23T23:17:50.988Z,22.43
2019-01-23T23:20:18.443Z,18.60
2019-01-23T23:22:45.804Z,19.33
2019-01-23T23:25:13.130Z,20.70
2019-01-23T23:27:40.475Z,20.07
2019-01-23T23:30:09.872Z,20.10
2019-01-23T23:32:37.232Z,15.70
2019-01-23T23:35:05.183Z,18.77
2019-01-23T23:37:32.519Z,19.57
2019-01-23T23:39:59.724Z,16.07
2019-01-23T23:42:27.065Z,17.13
2019-01-23T23:44:54.312Z,18.93
2019-01-23T23:47:21.760Z,18.47
2019-01-23T23:49:49.080Z,22.07
2019-01-23T23:52:16.409Z,18.67
2019-01-23T23:54:43.750Z,16.57
2019-01-23T23:57:11.060Z,17.60
2019-01-23T23:59:38.395Z,14.93
